Roberts International Airport

Jump to: basic info | weather | frequencies | runways | comments

Related pages: nearby airports | nearby navaids | notams | map

Basic information (top)

Codes: ROB GLRB
Location: lon 6.233790, lat -10.362300, elev 31 ft / 9 m msl
Status: medium_airport
Scheduled airline service: yes
Links: Wikipedia Mobile

Weather (top)

Current conditions (rec'd 2014/11/23 01:30Z):

GLRB 230130Z 00000KT 9999 TS BKN013 FEW023 CB 25/24 Q1012 RMK CB-S/SW

Airport forecast (rec'd 2014/11/22 18:54Z):

TAF TAF GLRB 221600Z 2218/2324 20010KT 9999 BKN016 FEW026CB 
      BECMG 2220/2223 12010KT 8000 TSRA SCT003 BKN014 FEW024CB FM 230200 04004KT 9999 BKN013 FEW023CB 
      TEMPO 2307/2312 20010KT 9999

Frequencies (top)

Verify before use: may be inaccurate or out of date.

A/G: 345.2 MHz (A/G VOICE RDO)
APP: 124.5 MHz (ROBERTS APP)
GND: 121.9 MHz (GND)
TWR: 118.3 MHz (ROBERTS TWR)

Runways (top)

04/22: 11,000 x 150 ft (3,353 x 46 m) — paved — lighted — threshold 22 displaced 1,200 ft (366 m)

Latest comments (top)

No comments yet for Roberts International Airport

More... (top)

See also NOTAMs and nearby airports and navaids, or visit the Roberts International Airport page at the main OurAirports website..